Time;durP1;ratioP1;P1;durP2;ratioP2;P2;SDS_P1;SDS_P2;PMS_P1;PMS_P2;Temp;Humidity;BMP_temperature;BMP_pressure;BME280_temperature;BME280_humidity;BME280_pressure;Samples;Min_cycle;Max_cycle;Signal;HPM_P1;HPM_P2
2023/07/04 00:01:45;;;;;;;6.15;1.70;;;12.10;99.90;;;;;;4995670;28;20088;-64
2023/07/04 00:04:12;;;;;;;4.32;1.45;;;12.20;99.90;;;;;;4979781;28;20053;-64
2023/07/04 00:06:39;;;;;;;7.03;1.58;;;12.10;99.90;;;;;;5012514;28;20077;-64
2023/07/04 00:09:06;;;;;;;5.90;1.60;;;12.10;99.90;;;;;;5013312;28;20542;-64
2023/07/04 00:11:33;;;;;;;8.40;1.85;;;12.10;99.90;;;;;;5012461;28;20583;-64
2023/07/04 00:13:58;;;;;;;5.85;1.92;;;12.10;99.90;;;;;;4995452;28;20042;-64
2023/07/04 00:16:24;;;;;;;6.45;1.83;;;12.00;99.90;;;;;;4979067;28;20139;-64
2023/07/04 00:18:50;;;;;;;8.60;2.13;;;12.00;99.90;;;;;;4994744;28;20124;-64
2023/07/04 00:21:18;;;;;;;7.15;2.20;;;12.00;99.90;;;;;;4995558;28;20050;-64
2023/07/04 00:23:52;;;;;;;10.63;2.45;;;12.00;99.90;;;;;;4979058;28;20129;-64
2023/07/04 00:26:21;;;;;;;5.20;1.80;;;12.00;99.90;;;;;;4994669;28;20081;-64
2023/07/04 00:28:47;;;;;;;5.85;2.10;;;12.00;99.90;;;;;;4995282;28;20041;-64
2023/07/04 00:31:17;;;;;;;10.80;2.80;;;11.90;99.90;;;;;;4995161;28;20033;-64
2023/07/04 00:33:43;;;;;;;7.80;2.72;;;12.00;99.90;;;;;;5011915;28;20048;-64
2023/07/04 00:36:14;;;;;;;8.50;2.90;;;12.00;99.90;;;;;;4995530;28;20084;-64
2023/07/04 00:38:41;;;;;;;11.05;2.45;;;11.90;99.90;;;;;;4995213;28;20030;-64
2023/07/04 00:41:23;;;;;;;8.30;2.85;;;12.00;99.90;;;;;;4995013;28;20396;-64
2023/07/04 00:44:07;;;;;;;7.88;2.53;;;12.00;99.90;;;;;;4994461;28;20125;-64
2023/07/04 00:46:45;;;;;;;8.07;2.53;;;12.00;99.90;;;;;;4995247;28;20050;-64
2023/07/04 00:49:20;;;;;;;9.55;3.03;;;12.00;99.90;;;;;;5012956;28;20030;-64
2023/07/04 00:52:08;;;;;;;5.97;2.55;;;12.00;99.90;;;;;;4995053;28;20065;-64
2023/07/04 00:54:41;;;;;;;5.45;2.08;;;12.00;99.90;;;;;;4994031;28;20125;-64
2023/07/04 00:57:08;;;;;;;6.78;2.28;;;12.00;99.90;;;;;;5012866;28;20045;-64
2023/07/04 00:59:43;;;;;;;8.70;2.00;;;12.00;99.90;;;;;;5012419;28;20048;-64
2023/07/04 01:02:11;;;;;;;7.15;2.20;;;12.00;99.90;;;;;;4994537;28;20049;-62
2023/07/04 01:04:37;;;;;;;6.75;2.38;;;12.00;99.90;;;;;;5012353;28;20046;-62
2023/07/04 01:07:35;;;;;;;11.07;2.42;;;12.10;99.90;;;;;;4994484;28;20415;-62
2023/07/04 01:10:11;;;;;;;6.13;2.28;;;12.10;99.90;;;;;;5010894;28;20077;-62
2023/07/04 01:12:39;;;;;;;6.07;2.30;;;12.20;99.90;;;;;;4994643;28;20037;-62
2023/07/04 01:15:06;;;;;;;7.40;2.28;;;12.20;99.90;;;;;;4994031;28;20066;-62
2023/07/04 01:17:32;;;;;;;11.00;2.90;;;12.20;99.90;;;;;;5012453;28;20473;-62
2023/07/04 01:20:00;;;;;;;8.63;2.15;;;12.20;99.90;;;;;;5012047;28;20483;-62
2023/07/04 01:22:50;;;;;;;9.52;2.60;;;12.20;99.90;;;;;;5011558;28;20042;-62
2023/07/04 01:26:00;;;;;;;10.07;2.90;;;12.20;99.90;;;;;;4994594;28;20446;-62
2023/07/04 01:28:29;;;;;;;8.77;3.30;;;12.30;99.90;;;;;;4932617;29;20097;-62
2023/07/04 01:30:55;;;;;;;6.45;2.17;;;12.30;99.90;;;;;;4915938;29;20083;-62
2023/07/04 01:33:22;;;;;;;7.70;2.60;;;12.30;99.90;;;;;;4954361;28;20151;-62
2023/07/04 01:35:47;;;;;;;9.02;2.65;;;12.20;99.90;;;;;;4994612;28;20056;-62
2023/07/04 01:38:13;;;;;;;7.90;2.30;;;12.30;99.90;;;;;;5011414;28;20034;-62
2023/07/04 01:40:39;;;;;;;6.20;2.15;;;12.20;99.90;;;;;;4994854;28;20522;-62
2023/07/04 01:43:05;;;;;;;6.03;2.80;;;12.20;99.90;;;;;;4977477;28;20398;-62
2023/07/04 01:45:31;;;;;;;6.63;2.55;;;12.20;99.90;;;;;;4994686;28;20060;-62
2023/07/04 01:47:57;;;;;;;7.32;2.60;;;12.20;99.90;;;;;;4994149;28;20046;-62
2023/07/04 01:50:23;;;;;;;9.00;2.63;;;12.20;99.90;;;;;;5011176;28;20038;-62
2023/07/04 01:52:49;;;;;;;6.90;2.45;;;12.20;99.90;;;;;;4994390;28;20030;-62
2023/07/04 01:55:15;;;;;;;8.60;2.65;;;12.10;99.90;;;;;;5011879;28;20124;-62
2023/07/04 01:57:42;;;;;;;9.73;2.60;;;12.10;99.90;;;;;;4993361;28;20129;-62
2023/07/04 02:00:09;;;;;;;7.65;1.85;;;12.10;99.90;;;;;;4994783;28;20391;-62
2023/07/04 02:02:39;;;;;;;4.90;2.20;;;12.10;99.90;;;;;;4993943;28;20491;-62
2023/07/04 02:05:06;;;;;;;7.07;2.40;;;12.10;99.90;;;;;;4993608;28;20100;-62
2023/07/04 02:07:32;;;;;;;8.30;2.67;;;12.10;99.90;;;;;;5011688;28;20049;-62
2023/07/04 02:09:58;;;;;;;5.50;2.58;;;12.10;99.90;;;;;;5011804;28;20122;-62
2023/07/04 02:12:24;;;;;;;6.00;2.42;;;12.10;99.90;;;;;;4993394;28;20121;-63
2023/07/04 02:14:49;;;;;;;5.55;2.00;;;12.10;99.90;;;;;;4977670;28;20049;-63
2023/07/04 02:17:15;;;;;;;6.82;2.47;;;12.10;99.90;;;;;;5010455;28;20415;-63
2023/07/04 02:19:41;;;;;;;7.97;2.50;;;12.10;99.90;;;;;;5010803;28;20471;-63
2023/07/04 02:22:07;;;;;;;6.75;2.13;;;12.10;99.90;;;;;;4997145;28;20085;-63
2023/07/04 02:24:33;;;;;;;7.00;2.60;;;12.10;99.90;;;;;;4997331;28;20054;-64
2023/07/04 02:26:58;;;;;;;6.55;2.28;;;12.10;99.90;;;;;;4996734;28;20041;-65
2023/07/04 02:29:24;;;;;;;8.70;2.47;;;12.10;99.90;;;;;;5015087;28;20113;-66
2023/07/04 02:31:49;;;;;;;6.65;2.67;;;12.00;99.90;;;;;;4997511;28;20117;-66
2023/07/04 02:34:15;;;;;;;7.28;2.20;;;12.00;99.90;;;;;;4996756;28;20042;-64
2023/07/04 02:36:41;;;;;;;10.30;2.70;;;12.10;99.90;;;;;;4997702;28;20057;-64
2023/07/04 02:39:06;;;;;;;5.78;2.45;;;12.10;99.90;;;;;;4997901;28;20491;-64
2023/07/04 02:41:32;;;;;;;9.40;2.63;;;12.10;99.90;;;;;;5014243;28;20483;-65
2023/07/04 02:43:59;;;;;;;5.88;2.22;;;12.10;99.90;;;;;;4980955;28;20042;-66
2023/07/04 02:46:25;;;;;;;9.63;2.50;;;12.10;99.90;;;;;;4980027;28;20038;-65
2023/07/04 02:48:50;;;;;;;6.80;2.33;;;12.10;99.90;;;;;;5014444;28;20045;-65
2023/07/04 02:51:16;;;;;;;5.28;2.25;;;12.10;99.90;;;;;;5014455;28;20073;-65
2023/07/04 02:53:42;;;;;;;9.80;2.30;;;12.10;99.90;;;;;;5013955;28;20034;-66
2023/07/04 02:56:07;;;;;;;6.07;2.20;;;12.20;99.90;;;;;;4997057;28;20037;-65
2023/07/04 02:58:33;;;;;;;6.65;2.30;;;12.20;99.90;;;;;;4996907;28;20034;-65
2023/07/04 03:01:01;;;;;;;5.80;1.95;;;12.20;99.90;;;;;;4996157;28;20633;-66
2023/07/04 03:03:27;;;;;;;6.35;2.42;;;12.20;99.90;;;;;;4996788;28;20101;-65
2023/07/04 03:05:53;;;;;;;5.40;2.03;;;12.30;99.90;;;;;;4996805;28;20041;-65
2023/07/04 03:08:19;;;;;;;5.15;1.83;;;12.30;99.90;;;;;;4995873;28;20457;-65
2023/07/04 03:10:47;;;;;;;9.48;2.05;;;12.30;99.90;;;;;;4996717;28;20046;-65
2023/07/04 03:13:14;;;;;;;7.05;1.85;;;12.30;99.90;;;;;;4996647;28;20034;-65
2023/07/04 03:15:40;;;;;;;4.70;1.73;;;12.40;99.90;;;;;;4995879;28;20049;-66
2023/07/04 03:18:06;;;;;;;8.80;1.92;;;12.40;99.90;;;;;;5014262;28;20088;-65
2023/07/04 03:20:32;;;;;;;6.90;2.42;;;12.50;99.90;;;;;;5014114;28;20050;-65
2023/07/04 03:22:57;;;;;;;7.30;2.03;;;12.50;99.90;;;;;;5013440;28;20045;-66
2023/07/04 03:25:23;;;;;;;4.97;1.35;;;12.60;99.90;;;;;;5014117;28;20430;-65
2023/07/04 03:27:49;;;;;;;6.22;1.73;;;12.60;99.90;;;;;;4996377;28;20380;-65
2023/07/04 03:30:15;;;;;;;6.05;1.95;;;12.60;99.90;;;;;;5013274;28;20479;-65
2023/07/04 03:32:41;;;;;;;6.18;1.95;;;12.60;99.90;;;;;;4995984;28;20124;-66
2023/07/04 03:35:08;;;;;;;6.40;1.40;;;12.60;99.90;;;;;;4996868;28;20038;-65
2023/07/04 03:37:35;;;;;;;4.07;1.27;;;12.60;99.90;;;;;;4995436;28;20046;-65
2023/07/04 03:40:04;;;;;;;4.32;1.50;;;12.50;99.90;;;;;;5013515;28;20483;-65
2023/07/04 03:42:29;;;;;;;4.25;1.27;;;12.50;99.90;;;;;;4995200;28;20042;-65
2023/07/04 03:44:55;;;;;;;4.07;1.13;;;12.50;99.90;;;;;;4996101;28;20053;-65
2023/07/04 03:47:21;;;;;;;3.33;1.33;;;12.40;99.90;;;;;;4995903;28;20048;-65
2023/07/04 03:49:46;;;;;;;3.22;1.20;;;12.40;99.90;;;;;;4995493;28;20044;-65
2023/07/04 03:52:12;;;;;;;7.43;1.60;;;12.40;99.90;;;;;;4996517;28;20042;-65
2023/07/04 03:54:38;;;;;;;3.60;1.13;;;12.40;99.90;;;;;;5013921;28;20040;-65
2023/07/04 03:57:04;;;;;;;3.13;1.02;;;12.40;99.90;;;;;;4978763;28;20042;-65
2023/07/04 03:59:30;;;;;;;6.68;1.40;;;12.40;99.90;;;;;;5013337;28;20397;-65
2023/07/04 04:01:55;;;;;;;6.63;1.27;;;12.40;99.90;;;;;;4995802;28;20034;-65
2023/07/04 04:04:21;;;;;;;3.78;1.38;;;12.40;99.90;;;;;;4994995;28;20132;-65
2023/07/04 04:06:48;;;;;;;3.15;0.80;;;12.40;99.90;;;;;;4995300;28;20403;-63
2023/07/04 04:09:15;;;;;;;3.70;1.10;;;12.40;99.90;;;;;;4995763;28;20046;-63
2023/07/04 04:11:59;;;;;;;3.08;1.02;;;12.50;99.90;;;;;;5012522;28;20120;-63
2023/07/04 04:14:45;;;;;;;3.53;1.38;;;12.50;99.90;;;;;;5013080;28;20097;-63
2023/07/04 04:17:11;;;;;;;3.25;1.05;;;12.50;99.90;;;;;;4995839;28;20132;-63
2023/07/04 04:19:37;;;;;;;3.55;1.23;;;12.60;99.90;;;;;;4994646;28;20042;-63
2023/07/04 04:22:04;;;;;;;5.15;1.55;;;12.60;99.90;;;;;;4979158;28;20042;-63
2023/07/04 04:24:29;;;;;;;4.20;1.35;;;12.70;99.90;;;;;;4995319;28;20049;-63
2023/07/04 04:26:57;;;;;;;4.45;1.42;;;12.80;99.90;;;;;;4994165;28;20041;-62
2023/07/04 04:29:22;;;;;;;4.05;1.20;;;12.80;99.90;;;;;;4979225;28;20042;-62
2023/07/04 04:31:48;;;;;;;4.85;1.10;;;12.80;99.90;;;;;;4994683;28;20479;-62
2023/07/04 04:34:16;;;;;;;3.17;1.00;;;12.80;99.90;;;;;;4978793;28;20129;-62
2023/07/04 04:36:42;;;;;;;2.58;1.00;;;12.80;99.90;;;;;;4995392;28;20399;-62
2023/07/04 04:39:08;;;;;;;3.85;1.00;;;12.80;99.90;;;;;;4994661;28;20049;-62
2023/07/04 04:41:36;;;;;;;3.78;1.10;;;12.80;99.90;;;;;;4995077;28;20053;-62
2023/07/04 04:44:04;;;;;;;3.90;1.33;;;12.70;99.90;;;;;;4978844;28;20077;-62
2023/07/04 04:46:30;;;;;;;4.57;1.20;;;12.70;99.90;;;;;;4994053;28;20042;-62
2023/07/04 04:48:58;;;;;;;3.28;1.27;;;12.70;99.90;;;;;;4995198;28;20402;-62
2023/07/04 04:51:24;;;;;;;3.97;1.17;;;12.70;99.90;;;;;;4979188;28;20391;-62
2023/07/04 04:53:50;;;;;;;6.05;1.50;;;12.70;99.90;;;;;;4994276;28;20100;-62
2023/07/04 04:56:16;;;;;;;2.83;1.10;;;12.80;99.90;;;;;;5011966;28;20604;-62
2023/07/04 04:58:44;;;;;;;8.20;1.30;;;12.70;99.90;;;;;;5012556;28;20602;-62
2023/07/04 05:01:28;;;;;;;3.80;1.30;;;12.80;99.90;;;;;;4994423;28;20046;-62
2023/07/04 05:03:55;;;;;;;5.63;1.40;;;12.90;99.90;;;;;;4994435;28;20501;-62
2023/07/04 05:06:23;;;;;;;5.95;1.58;;;12.80;99.90;;;;;;4994811;28;20431;-62
2023/07/04 05:08:50;;;;;;;4.00;1.30;;;12.90;99.90;;;;;;5011499;28;20161;-62
2023/07/04 05:11:16;;;;;;;3.80;1.40;;;13.00;99.90;;;;;;4994667;28;20049;-62
2023/07/04 05:13:45;;;;;;;7.40;1.60;;;13.10;99.90;;;;;;4994644;28;20042;-62
2023/07/04 05:16:14;;;;;;;5.40;1.42;;;13.20;99.90;;;;;;5011613;28;20049;-62
2023/07/04 05:18:41;;;;;;;4.53;1.55;;;13.20;99.90;;;;;;4978550;28;20040;-62
2023/07/04 05:21:18;;;;;;;5.93;1.42;;;13.30;99.90;;;;;;4994031;28;20509;-62
2023/07/04 05:23:45;;;;;;;8.15;1.83;;;13.30;99.90;;;;;;4994392;28;20037;-62
2023/07/04 05:26:20;;;;;;;10.88;2.08;;;13.40;99.90;;;;;;4994714;28;20042;-62
2023/07/04 05:28:46;;;;;;;5.90;1.85;;;13.40;99.90;;;;;;5011314;28;20050;-62
2023/07/04 05:31:17;;;;;;;9.00;1.80;;;13.60;99.90;;;;;;5012264;28;20368;-62
2023/07/04 05:33:43;;;;;;;5.80;2.03;;;13.70;99.90;;;;;;4994384;28;20042;-62
2023/07/04 05:36:28;;;;;;;8.45;2.08;;;13.90;99.90;;;;;;5011764;28;20045;-62
2023/07/04 05:38:56;;;;;;;6.53;1.92;;;14.00;99.90;;;;;;5012084;28;20398;-62
2023/07/04 05:41:25;;;;;;;7.03;1.92;;;14.10;99.90;;;;;;4994619;28;20054;-62
2023/07/04 05:43:51;;;;;;;5.38;1.70;;;14.20;99.90;;;;;;4993663;28;20509;-62
2023/07/04 05:46:18;;;;;;;10.38;2.05;;;14.40;99.90;;;;;;5011333;28;20042;-62
2023/07/04 05:48:44;;;;;;;6.20;1.70;;;14.50;99.90;;;;;;4987942;28;20069;-62
2023/07/04 05:51:13;;;;;;;11.27;2.45;;;14.60;99.90;;;;;;4973773;28;20081;-62
2023/07/04 05:53:42;;;;;;;7.93;1.85;;;14.70;99.90;;;;;;4989086;28;20046;-63
2023/07/04 05:56:12;;;;;;;7.05;1.58;;;14.80;99.90;;;;;;4994208;28;20072;-62
2023/07/04 05:58:40;;;;;;;7.28;1.95;;;14.90;99.90;;;;;;4978835;28;20046;-63
2023/07/04 06:01:15;;;;;;;7.07;2.08;;;15.10;99.90;;;;;;4995715;28;20065;-62
2023/07/04 06:03:41;;;;;;;;;;;15.20;99.90;;;;;;4994973;28;20076;-63
2023/07/04 06:06:18;;;;;;;6.15;1.63;;;15.30;99.90;;;;;;4995600;28;19961;-63
2023/07/04 06:08:43;;;;;;;6.13;2.03;;;15.30;99.90;;;;;;4995215;28;20042;-63
2023/07/04 06:11:10;;;;;;;6.72;2.30;;;15.30;99.90;;;;;;4977441;28;20053;-63
2023/07/04 06:13:35;;;;;;;9.75;1.65;;;15.40;99.90;;;;;;4985938;28;20045;-63
2023/07/04 06:16:03;;;;;;;6.40;1.48;;;15.50;99.90;;;;;;4997069;28;20054;-63
2023/07/04 06:18:29;;;;;;;9.60;2.50;;;15.50;99.90;;;;;;5000713;28;20129;-63
2023/07/04 06:21:13;;;;;;;9.75;1.77;;;15.50;99.90;;;;;;4994820;28;20050;-63
2023/07/04 06:23:39;;;;;;;4.80;1.30;;;15.70;99.90;;;;;;4977395;28;20125;-63
2023/07/04 06:26:06;;;;;;;8.68;1.92;;;15.70;99.90;;;;;;4986506;28;20128;-63
2023/07/04 06:28:36;;;;;;;4.30;1.40;;;15.70;99.90;;;;;;4992444;28;20049;-63
2023/07/04 06:31:03;;;;;;;8.88;1.95;;;15.70;99.90;;;;;;4981007;28;20491;-63
2023/07/04 06:33:30;;;;;;;5.47;1.58;;;15.70;99.90;;;;;;5014312;28;20038;-62
2023/07/04 06:35:55;;;;;;;11.68;2.22;;;15.70;99.90;;;;;;5014980;28;20034;-63
2023/07/04 06:38:22;;;;;;;6.45;1.60;;;15.80;99.90;;;;;;4996469;28;20054;-63
2023/07/04 06:40:59;;;;;;;6.53;1.92;;;15.90;99.90;;;;;;4996655;28;20048;-63
2023/07/04 06:43:26;;;;;;;6.95;1.83;;;16.00;99.90;;;;;;4992857;28;20052;-62
2023/07/04 06:45:52;;;;;;;6.72;1.85;;;16.10;99.90;;;;;;5011520;28;20459;-62
2023/07/04 06:48:19;;;;;;;4.63;1.40;;;16.20;99.90;;;;;;5012170;28;20133;-62
2023/07/04 06:50:58;;;;;;;9.10;1.88;;;16.30;99.90;;;;;;4994385;28;20042;-62
2023/07/04 06:53:23;;;;;;;8.43;1.80;;;16.50;99.90;;;;;;4977254;28;20149;-62
2023/07/04 06:55:49;;;;;;;6.80;1.80;;;16.40;99.90;;;;;;4994389;28;20539;-62
2023/07/04 06:58:15;;;;;;;11.32;1.90;;;16.40;99.90;;;;;;4992464;28;20042;-62
2023/07/04 07:00:41;;;;;;;6.68;1.73;;;16.40;99.90;;;;;;4987974;28;20042;-62
2023/07/04 07:03:07;;;;;;;6.00;1.17;;;16.50;99.90;;;;;;5009291;28;20051;-62
2023/07/04 07:05:40;;;;;;;5.13;1.17;;;16.50;99.90;;;;;;4990674;28;20556;-62
2023/07/04 07:08:06;;;;;;;5.78;1.63;;;16.60;99.90;;;;;;4991452;28;20081;-63
2023/07/04 07:10:36;;;;;;;5.65;1.25;;;16.70;99.90;;;;;;4993749;28;20480;-63
2023/07/04 07:13:04;;;;;;;8.73;1.85;;;16.70;99.90;;;;;;5011711;28;20060;-63
2023/07/04 07:15:31;;;;;;;4.18;1.60;;;16.60;99.90;;;;;;5010824;28;20062;-63
2023/07/04 07:18:02;;;;;;;6.55;1.98;;;16.60;99.90;;;;;;4993713;28;20446;-63
2023/07/04 07:20:27;;;;;;;6.10;1.75;;;16.60;99.90;;;;;;5011088;28;20475;-62
2023/07/04 07:22:56;;;;;;;4.13;1.75;;;16.50;99.90;;;;;;4993672;28;20046;-62
2023/07/04 07:25:22;;;;;;;6.03;1.98;;;16.60;99.90;;;;;;5010400;28;20042;-62
2023/07/04 07:27:47;;;;;;;5.75;1.52;;;16.50;99.90;;;;;;4992432;28;20045;-62
2023/07/04 07:30:13;;;;;;;6.57;1.25;;;16.60;99.90;;;;;;4992457;28;20395;-62
2023/07/04 07:32:39;;;;;;;4.75;1.58;;;16.70;99.90;;;;;;4977815;28;20049;-62
2023/07/04 07:35:05;;;;;;;5.78;1.73;;;16.70;99.90;;;;;;4993342;28;20052;-63
2023/07/04 07:37:31;;;;;;;4.72;1.63;;;16.80;99.90;;;;;;4993187;28;20041;-63
2023/07/04 07:39:57;;;;;;;7.63;1.70;;;16.80;99.90;;;;;;5011258;28;20053;-63
2023/07/04 07:42:22;;;;;;;9.18;1.80;;;16.90;99.90;;;;;;4992710;28;20501;-63
2023/07/04 07:44:48;;;;;;;6.93;1.65;;;17.00;99.90;;;;;;4992866;28;20076;-63
2023/07/04 07:47:14;;;;;;;6.03;1.65;;;17.00;99.90;;;;;;5010589;28;20045;-62
2023/07/04 07:49:40;;;;;;;5.22;1.55;;;17.10;99.90;;;;;;5009954;28;20384;-62
2023/07/04 07:52:05;;;;;;;7.18;1.50;;;17.10;99.90;;;;;;5006485;28;20034;-62
2023/07/04 07:54:31;;;;;;;7.13;2.33;;;17.00;99.90;;;;;;4973196;28;20109;-62
2023/07/04 07:56:57;;;;;;;6.85;1.27;;;17.00;99.90;;;;;;4988865;28;20069;-62
2023/07/04 07:59:23;;;;;;;6.22;1.65;;;17.00;99.90;;;;;;4990738;28;20483;-62
2023/07/04 08:01:48;;;;;;;5.65;1.45;;;17.00;99.90;;;;;;4976791;28;20052;-63
2023/07/04 08:04:14;;;;;;;7.63;2.22;;;17.10;99.90;;;;;;4991614;28;20091;-63
2023/07/04 08:06:42;;;;;;;5.72;2.00;;;17.20;99.90;;;;;;4979249;28;20057;-62
2023/07/04 08:09:12;;;;;;;10.15;2.08;;;17.30;99.90;;;;;;4993194;28;20113;-62
2023/07/04 08:11:39;;;;;;;5.20;1.40;;;17.30;99.90;;;;;;4992209;28;20120;-62
2023/07/04 08:14:05;;;;;;;5.72;1.70;;;17.30;99.90;;;;;;4992461;28;20038;-62
2023/07/04 08:16:44;;;;;;;9.27;2.13;;;17.30;99.90;;;;;;4991318;28;20064;-62
2023/07/04 08:19:10;;;;;;;8.10;2.22;;;17.50;99.90;;;;;;4998988;28;20048;-62
2023/07/04 08:21:36;;;;;;;5.93;1.55;;;17.70;99.90;;;;;;4992605;28;20042;-62
2023/07/04 08:24:10;;;;;;;7.15;2.30;;;17.90;99.90;;;;;;4991732;28;20542;-62
2023/07/04 08:26:36;;;;;;;7.57;2.22;;;18.00;99.90;;;;;;4975123;28;20054;-63
2023/07/04 08:29:02;;;;;;;8.38;1.98;;;18.00;99.90;;;;;;4991015;28;20503;-63
2023/07/04 08:31:28;;;;;;;6.47;1.83;;;18.00;99.90;;;;;;4975227;28;20045;-65
2023/07/04 08:33:54;;;;;;;8.07;2.13;;;17.90;99.90;;;;;;4991255;28;20038;-64
2023/07/04 08:36:20;;;;;;;10.57;2.80;;;17.70;99.90;;;;;;4984876;28;20122;-62
2023/07/04 08:38:49;;;;;;;9.43;2.55;;;17.50;99.90;;;;;;4981549;28;20046;-63
2023/07/04 08:41:36;;;;;;;6.78;2.08;;;17.30;99.90;;;;;;4969662;28;20034;-63
2023/07/04 08:44:24;;;;;;;6.93;2.20;;;17.10;99.90;;;;;;4992088;28;20041;-62
2023/07/04 08:46:54;;;;;;;8.80;2.25;;;16.90;99.90;;;;;;4991409;28;20151;-62
2023/07/04 08:49:34;;;;;;;11.80;2.95;;;16.90;99.90;;;;;;4991784;28;20068;-64
2023/07/04 08:52:06;;;;;;;8.00;2.75;;;16.90;99.90;;;;;;4986078;28;20077;-64
2023/07/04 08:54:34;;;;;;;11.90;2.42;;;17.10;99.90;;;;;;4992341;28;20053;-63
2023/07/04 08:57:19;;;;;;;12.07;3.03;;;17.40;99.90;;;;;;4991822;28;20107;-63
2023/07/04 08:59:47;;;;;;;9.48;2.45;;;17.60;99.90;;;;;;4977733;28;20122;-66
2023/07/04 09:02:29;;;;;;;8.65;3.25;;;17.80;99.90;;;;;;4994343;28;20034;-63
2023/07/04 09:05:05;;;;;;;7.97;2.65;;;18.00;99.90;;;;;;4992703;28;20529;-61
2023/07/04 09:07:45;;;;;;;9.25;2.03;;;18.00;99.90;;;;;;5008037;28;20046;-62
2023/07/04 09:10:38;;;;;;;11.43;2.88;;;17.90;99.90;;;;;;4995173;28;20038;-62
2023/07/04 09:13:08;;;;;;;9.68;2.10;;;17.70;99.90;;;;;;4994364;28;20130;-63
2023/07/04 09:15:38;;;;;;;5.78;1.73;;;17.80;99.90;;;;;;5012129;28;20456;-63
2023/07/04 09:18:28;;;;;;;9.38;2.22;;;18.10;99.90;;;;;;4994543;28;20050;-63
2023/07/04 09:21:04;;;;;;;5.00;1.60;;;18.20;99.90;;;;;;5011319;28;20554;-62
2023/07/04 09:23:30;;;;;;;6.43;1.70;;;18.40;99.90;;;;;;4994776;28;20049;-62
2023/07/04 09:25:57;;;;;;;8.80;1.65;;;18.60;99.90;;;;;;4978377;28;20090;-62
2023/07/04 09:28:24;;;;;;;7.50;1.88;;;18.50;99.90;;;;;;5011288;28;20038;-62
2023/07/04 09:30:53;;;;;;;8.88;1.88;;;18.40;99.90;;;;;;5012806;28;20037;-62
2023/07/04 09:33:21;;;;;;;5.50;1.42;;;18.30;99.90;;;;;;5015996;28;20045;-61
2023/07/04 09:35:47;;;;;;;5.78;2.05;;;18.10;99.90;;;;;;5015471;28;20368;-62
2023/07/04 09:38:13;;;;;;;5.72;1.42;;;18.20;99.90;;;;;;4998435;28;20053;-62
2023/07/04 09:40:50;;;;;;;5.20;1.30;;;18.40;99.90;;;;;;5016390;28;20483;-63
2023/07/04 09:43:31;;;;;;;4.75;1.73;;;18.60;99.90;;;;;;4981288;28;20046;-63
2023/07/04 09:46:30;;;;;;;6.88;2.03;;;18.70;99.90;;;;;;5016078;28;20113;-62
2023/07/04 09:49:19;;;;;;;6.25;1.48;;;18.80;99.90;;;;;;4955299;28;20136;-62
2023/07/04 09:52:03;;;;;;;7.07;2.22;;;18.80;99.90;;;;;;4998227;28;20038;-63
2023/07/04 09:54:34;;;;;;;7.50;1.80;;;18.60;99.90;;;;;;4982335;28;20101;-62
2023/07/04 09:57:30;;;;;;;5.57;1.48;;;18.30;99.90;;;;;;4981513;28;20049;-62
2023/07/04 10:00:22;;;;;;;9.23;1.92;;;17.80;99.90;;;;;;4998884;28;20081;-62
2023/07/04 10:02:55;;;;;;;5.95;2.10;;;17.40;99.90;;;;;;5015042;28;20383;-63
2023/07/04 10:05:31;;;;;;;8.45;2.15;;;17.40;99.90;;;;;;4998256;28;20046;-63
2023/07/04 10:08:06;;;;;;;6.65;1.80;;;17.60;99.90;;;;;;4998040;28;20046;-63
2023/07/04 10:10:36;;;;;;;7.35;1.67;;;17.60;99.90;;;;;;4980906;28;20041;-63
2023/07/04 10:13:02;;;;;;;7.18;2.15;;;17.80;99.90;;;;;;5015531;28;20045;-63
2023/07/04 10:15:44;;;;;;;7.75;1.60;;;18.10;99.90;;;;;;4997915;28;20129;-63
2023/07/04 10:18:38;;;;;;;5.10;1.70;;;18.40;99.90;;;;;;4997310;28;20152;-63
2023/07/04 10:21:06;;;;;;;7.82;2.13;;;18.80;99.90;;;;;;5012547;28;20129;-63
2023/07/04 10:23:33;;;;;;;7.38;1.98;;;19.00;99.90;;;;;;5014601;28;20068;-63
2023/07/04 10:26:01;;;;;;;7.68;1.98;;;19.10;99.90;;;;;;4997733;28;20046;-63
2023/07/04 10:28:28;;;;;;;8.43;2.08;;;19.10;99.90;;;;;;4981175;28;20041;-63
2023/07/04 10:31:12;;;;;;;6.88;1.50;;;18.90;99.90;;;;;;4980553;28;20034;-63
2023/07/04 10:33:41;;;;;;;4.85;1.98;;;18.90;99.90;;;;;;5015331;28;20085;-63
2023/07/04 10:36:10;;;;;;;4.03;1.60;;;18.80;99.10;;;;;;5015479;28;20038;-63
2023/07/04 10:38:48;;;;;;;5.95;1.67;;;18.70;98.90;;;;;;4996724;28;20048;-63
2023/07/04 10:41:22;;;;;;;6.28;1.60;;;18.60;98.70;;;;;;5015000;28;20034;-61
2023/07/04 10:43:56;;;;;;;4.47;1.58;;;18.50;99.00;;;;;;4981255;28;20487;-62
2023/07/04 10:46:25;;;;;;;6.87;1.90;;;18.60;99.20;;;;;;4996307;28;20053;-62
2023/07/04 10:48:58;;;;;;;5.78;1.50;;;18.70;99.00;;;;;;4997271;28;20038;-62
2023/07/04 10:51:30;;;;;;;8.25;2.08;;;18.60;99.10;;;;;;5014853;28;20042;-61
2023/07/04 10:53:56;;;;;;;7.82;2.53;;;18.60;99.20;;;;;;5014707;28;20034;-62
2023/07/04 10:56:32;;;;;;;7.50;1.83;;;18.80;99.50;;;;;;4997101;28;20100;-61
2023/07/04 10:59:12;;;;;;;9.35;1.60;;;18.90;99.50;;;;;;4996298;28;20048;-62
2023/07/04 11:01:49;;;;;;;6.47;1.83;;;19.20;99.50;;;;;;4997086;28;20042;-62
2023/07/04 11:04:22;;;;;;;5.15;1.60;;;19.50;99.80;;;;;;4997105;28;20042;-62
2023/07/04 11:07:21;;;;;;;8.60;2.00;;;19.70;98.00;;;;;;4996347;28;20503;-61
2023/07/04 11:09:51;;;;;;;5.55;1.92;;;19.70;97.00;;;;;;4955350;28;20120;-62
2023/07/04 11:12:19;;;;;;;8.38;1.30;;;19.70;97.20;;;;;;4996432;28;20092;-61
2023/07/04 11:14:47;;;;;;;9.40;1.90;;;19.80;97.10;;;;;;4995824;28;20210;-61
2023/07/04 11:17:18;;;;;;;8.20;2.40;;;20.00;97.30;;;;;;4980667;28;20050;-61
2023/07/04 11:20:12;;;;;;;8.23;2.03;;;20.10;97.30;;;;;;5013484;28;20042;-62
2023/07/04 11:22:49;;;;;;;5.90;2.20;;;20.30;96.30;;;;;;4996808;28;20053;-61
2023/07/04 11:25:41;;;;;;;7.32;1.60;;;20.30;94.70;;;;;;4996484;28;20053;-61
2023/07/04 11:28:34;;;;;;;6.00;1.88;;;20.20;95.10;;;;;;4996155;28;20398;-61
2023/07/04 11:31:21;;;;;;;8.77;2.30;;;20.20;96.10;;;;;;4995464;28;20105;-62
2023/07/04 11:33:53;;;;;;;7.22;1.67;;;20.30;95.80;;;;;;4987686;28;20041;-63
2023/07/04 11:36:24;;;;;;;4.43;1.77;;;20.30;95.70;;;;;;4996310;28;20038;-62
2023/07/04 11:38:58;;;;;;;6.03;1.73;;;20.30;95.60;;;;;;5014027;28;20053;-62
2023/07/04 11:41:35;;;;;;;8.20;1.70;;;20.10;94.20;;;;;;4995635;28;20026;-62
2023/07/04 11:44:29;;;;;;;6.63;1.83;;;19.90;95.50;;;;;;5013580;28;20088;-62
2023/07/04 11:47:00;;;;;;;7.45;2.03;;;20.10;96.10;;;;;;4979034;28;20438;-61
2023/07/04 11:49:34;;;;;;;6.60;1.85;;;20.10;95.80;;;;;;4994666;28;20124;-61
2023/07/04 11:55:40;;;;;;;4.60;1.40;;;19.90;94.90;;;;;;5002042;28;20067;-60
2023/07/04 11:58:06;;;;;;;5.78;1.92;;;19.80;94.90;;;;;;4992530;28;20136;-61
2023/07/04 12:00:38;;;;;;;8.25;2.50;;;19.70;93.90;;;;;;4977232;28;21072;-61
2023/07/04 12:03:21;;;;;;;6.70;1.50;;;19.80;94.60;;;;;;4976394;28;20046;-61
2023/07/04 12:05:58;;;;;;;5.18;1.50;;;19.70;93.30;;;;;;5011213;28;20056;-61
2023/07/04 12:08:50;;;;;;;4.45;1.42;;;19.50;93.60;;;;;;4986605;28;20045;-62
2023/07/04 12:11:23;;;;;;;10.18;2.17;;;19.40;93.80;;;;;;4965712;28;20487;-61
2023/07/04 12:13:51;;;;;;;10.90;2.05;;;19.40;94.40;;;;;;4992942;28;20068;-61
2023/07/04 12:16:23;;;;;;;9.27;2.50;;;19.50;95.00;;;;;;4991897;28;20085;-61
2023/07/04 12:18:49;;;;;;;6.18;1.60;;;19.60;95.40;;;;;;4992279;28;20459;-61
2023/07/04 12:21:20;;;;;;;5.05;1.40;;;19.80;94.90;;;;;;4976741;28;20111;-62
2023/07/04 12:23:46;;;;;;;6.78;1.38;;;19.80;94.30;;;;;;4991923;28;20053;-62
2023/07/04 12:26:21;;;;;;;6.68;1.77;;;19.60;93.90;;;;;;5006623;28;20165;-61
2023/07/04 12:28:47;;;;;;;5.35;1.30;;;19.40;93.90;;;;;;4978550;28;20050;-61
2023/07/04 12:31:14;;;;;;;5.07;1.80;;;19.50;93.50;;;;;;4976812;28;20606;-61
2023/07/04 12:33:44;;;;;;;5.28;1.50;;;19.40;93.90;;;;;;4991367;28;20048;-61
2023/07/04 12:36:15;;;;;;;6.18;1.55;;;19.50;94.40;;;;;;5008342;28;20041;-60
2023/07/04 12:38:53;;;;;;;7.45;1.80;;;19.70;94.70;;;;;;4991443;28;20053;-61
2023/07/04 12:41:21;;;;;;;5.85;1.98;;;19.80;94.60;;;;;;4975984;28;20065;-61
2023/07/04 12:43:53;;;;;;;9.45;2.20;;;19.70;94.60;;;;;;5010069;28;20049;-62
2023/07/04 12:46:21;;;;;;;6.43;1.92;;;19.90;94.80;;;;;;5008999;28;20080;-61
2023/07/04 12:48:47;;;;;;;6.88;1.65;;;20.00;95.10;;;;;;4992445;28;20503;-62
2023/07/04 12:51:24;;;;;;;4.93;1.90;;;20.00;94.90;;;;;;4990857;28;20038;-61
2023/07/04 12:53:49;;;;;;;7.60;2.10;;;20.00;95.00;;;;;;4991511;28;20535;-61
2023/07/04 12:56:16;;;;;;;5.53;1.80;;;19.80;93.90;;;;;;4988203;28;20125;-62
2023/07/04 12:58:47;;;;;;;9.27;2.53;;;19.80;94.60;;;;;;5008900;28;20048;-63
2023/07/04 13:01:31;;;;;;;7.93;1.80;;;19.60;94.00;;;;;;4991755;28;20038;-60
2023/07/04 13:04:10;;;;;;;6.32;1.80;;;19.70;94.80;;;;;;4975958;28;20053;-62
2023/07/04 13:06:36;;;;;;;6.63;1.98;;;19.70;94.50;;;;;;4973984;28;20181;-62